Time;durP1;ratioP1;P1;durP2;ratioP2;P2;SDS_P1;SDS_P2;PMS_P1;PMS_P2;Temp;Humidity;BMP_temperature;BMP_pressure;BME280_temperature;BME280_humidity;BME280_pressure;Samples;Min_cycle;Max_cycle;Signal;HPM_P1;HPM_P2
2023/12/09 00:00:38;;;;;;;15.10;11.60;;;;;;;10.46;63.36;97250.38;5069901;28;20279;-69
2023/12/09 00:03:03;;;;;;;15.03;11.80;;;;;;;10.48;63.48;97258.09;5070295;28;20214;-70
2023/12/09 00:05:29;;;;;;;16.67;12.60;;;;;;;10.49;63.47;97249.25;5052755;28;20206;-68
2023/12/09 00:07:54;;;;;;;14.60;11.97;;;;;;;10.49;63.26;97250.06;5071454;28;20178;-70
2023/12/09 00:10:20;;;;;;;15.80;11.23;;;;;;;10.49;63.22;97249.25;5071035;28;20182;-69
2023/12/09 00:12:48;;;;;;;15.90;11.43;;;;;;;10.46;63.02;97239.88;5067578;28;20191;-69
2023/12/09 00:15:13;;;;;;;16.20;11.57;;;;;;;10.42;63.30;97244.59;5059867;28;20182;-68
2023/12/09 00:17:39;;;;;;;13.70;11.10;;;;;;;10.41;63.32;97252.63;5071001;28;20427;-67
2023/12/09 00:20:05;;;;;;;19.30;11.27;;;;;;;10.44;63.24;97252.34;5049329;28;20228;-68
2023/12/09 00:22:30;;;;;;;20.50;11.47;;;;;;;10.41;63.41;97252.63;5064534;28;20546;-68
2023/12/09 00:24:56;;;;;;;20.43;11.30;;;;;;;10.44;63.48;97252.34;5056900;28;20416;-69
2023/12/09 00:27:21;;;;;;;13.50;9.83;;;;;;;10.45;63.64;97246.94;5062299;28;20230;-68
2023/12/09 00:29:47;;;;;;;16.70;10.10;;;;;;;10.47;63.55;97262.50;5069165;28;20704;-69
2023/12/09 00:32:12;;;;;;;19.43;11.27;;;;;;;10.46;63.08;97258.22;5051146;28;20554;-68
2023/12/09 00:34:38;;;;;;;13.80;10.47;;;;;;;10.41;63.33;97248.19;5069600;28;20565;-68
2023/12/09 00:37:03;;;;;;;15.40;10.50;;;;;;;10.40;62.97;97253.59;5069193;28;20277;-68
2023/12/09 00:39:28;;;;;;;14.10;10.80;;;;;;;10.40;62.96;97258.84;5068703;28;20183;-68
2023/12/09 00:41:54;;;;;;;17.63;10.27;;;;;;;10.38;63.14;97253.75;5066424;28;20680;-69
2023/12/09 00:44:20;;;;;;;16.93;11.20;;;;;;;10.41;63.23;97258.69;5069749;28;20650;-71
2023/12/09 00:46:47;;;;;;;14.57;10.97;;;;;;;10.42;63.08;97252.47;5066884;28;20870;-70
2023/12/09 00:49:12;;;;;;;16.60;10.40;;;;;;;10.40;63.08;97250.97;5061134;28;20963;-68
2023/12/09 00:51:37;;;;;;;13.47;10.27;;;;;;;10.34;63.12;97248.91;5063554;28;20421;-70
2023/12/09 00:54:03;;;;;;;14.03;10.83;;;;;;;10.25;63.45;97243.59;5062174;28;20313;-70
2023/12/09 00:56:28;;;;;;;12.00;10.03;;;;;;;10.25;63.62;97241.00;5068149;28;20209;-70
2023/12/09 00:58:54;;;;;;;13.67;10.30;;;;;;;10.29;63.22;97244.97;5066927;28;20272;-71
2023/12/09 01:01:19;;;;;;;13.57;10.87;;;;;;;10.28;63.45;97252.97;5065272;28;20288;-72
2023/12/09 01:03:44;;;;;;;15.23;10.87;;;;;;;10.26;63.15;97254.94;5068399;28;20206;-70
2023/12/09 01:06:10;;;;;;;15.10;11.27;;;;;;;10.22;62.85;97264.84;5068086;28;20232;-71
2023/12/09 01:08:35;;;;;;;17.33;10.60;;;;;;;10.22;62.95;97259.63;5068171;28;20181;-70
2023/12/09 01:11:01;;;;;;;14.23;11.07;;;;;;;10.23;62.81;97269.13;5067098;28;20178;-71
2023/12/09 01:13:28;;;;;;;14.40;10.90;;;;;;;10.20;62.91;97273.84;5068676;28;20194;-70
2023/12/09 01:15:54;;;;;;;15.13;11.27;;;;;;;10.20;62.72;97282.53;5067921;28;20205;-69
2023/12/09 01:18:19;;;;;;;16.87;10.80;;;;;;;10.18;62.91;97284.47;5060960;28;20488;-71
2023/12/09 01:20:45;;;;;;;15.63;10.63;;;;;;;10.17;62.80;97290.69;5069063;28;20445;-72
2023/12/09 01:23:10;;;;;;;17.93;10.50;;;;;;;10.09;63.30;97293.19;5063241;28;20253;-71
2023/12/09 01:25:36;;;;;;;16.20;10.90;;;;;;;10.03;63.26;97294.59;5065870;28;20202;-68
2023/12/09 01:28:01;;;;;;;14.83;11.07;;;;;;;10.03;63.15;97296.41;5062470;28;20191;-70
2023/12/09 01:30:27;;;;;;;14.00;11.07;;;;;;;10.06;63.40;97296.94;5063777;28;20257;-69
2023/12/09 01:32:52;;;;;;;16.80;10.37;;;;;;;10.09;63.28;97287.97;5064009;28;20547;-69
2023/12/09 01:35:17;;;;;;;18.17;10.17;;;;;;;10.11;63.03;97291.25;5060401;28;20244;-70
2023/12/09 01:37:43;;;;;;;20.57;11.67;;;;;;;10.08;63.55;97292.38;5066439;28;20190;-68
2023/12/09 01:40:10;;;;;;;14.27;10.50;;;;;;;10.10;63.18;97287.00;5065530;28;20179;-70
2023/12/09 01:42:36;;;;;;;17.43;11.03;;;;;;;10.13;63.21;97297.19;5050416;28;20245;-69
2023/12/09 01:45:02;;;;;;;16.77;10.20;;;;;;;10.17;63.27;97306.41;5067919;28;20515;-68
2023/12/09 01:47:28;;;;;;;19.70;10.60;;;;;;;10.15;62.97;97305.72;5062687;28;20186;-69
2023/12/09 01:49:53;;;;;;;14.50;10.53;;;;;;;10.18;63.01;97305.44;5067655;28;20428;-69
2023/12/09 01:52:19;;;;;;;13.77;10.40;;;;;;;10.16;63.19;97315.22;5047852;28;20224;-68
2023/12/09 01:54:45;;;;;;;17.60;11.60;;;;;;;10.15;63.32;97321.44;5067962;28;20557;-69
2023/12/09 01:57:10;;;;;;;18.10;11.13;;;;;;;10.16;63.49;97320.47;5059583;28;20672;-69
2023/12/09 01:59:36;;;;;;;14.70;10.40;;;;;;;10.24;63.15;97315.31;5044342;28;20247;-71
2023/12/09 02:02:02;;;;;;;12.60;10.00;;;;;;;10.22;63.18;97325.09;5049905;28;20236;-69
2023/12/09 02:04:27;;;;;;;15.80;11.37;;;;;;;10.16;63.33;97328.31;5050209;28;20421;-70
2023/12/09 02:06:53;;;;;;;14.40;10.20;;;;;;;10.17;63.39;97329.97;5068221;28;20571;-70
2023/12/09 02:09:18;;;;;;;17.07;11.30;;;;;;;10.23;63.39;97329.38;5063242;28;20271;-70
2023/12/09 02:12:19;;;;;;;15.53;10.70;;;;;;;10.25;63.40;97337.09;5067067;28;20217;-71
2023/12/09 02:14:54;;;;;;;14.37;9.20;;;;;;;10.27;63.32;97335.16;5006203;28;20674;-69
2023/12/09 02:17:22;;;;;;;15.53;10.43;;;;;;;10.29;63.21;97333.19;5060103;28;20433;-69
2023/12/09 02:19:48;;;;;;;14.83;10.80;;;;;;;10.26;63.18;97334.31;5053388;28;20482;-69
2023/12/09 02:22:13;;;;;;;15.13;9.40;;;;;;;10.22;63.05;97335.56;5036924;28;20452;-70
2023/12/09 02:24:38;;;;;;;14.83;10.23;;;;;;;10.20;63.30;97323.59;5063470;28;20178;-69
2023/12/09 02:27:04;;;;;;;12.27;10.23;;;;;;;10.19;63.10;97317.56;5071378;28;20222;-70
2023/12/09 02:29:33;;;;;;;12.60;10.00;;;;;;;10.22;63.25;97306.75;5071292;28;20197;-71
2023/12/09 02:32:02;;;;;;;12.70;9.60;;;;;;;10.22;63.33;97306.75;5052847;28;20652;-70
2023/12/09 02:34:28;;;;;;;11.57;9.30;;;;;;;10.24;63.25;97307.44;5059908;28;20425;-70
2023/12/09 02:36:56;;;;;;;14.43;10.07;;;;;;;10.25;63.30;97298.63;5045285;28;20432;-69
2023/12/09 02:39:22;;;;;;;16.63;9.47;;;;;;;10.24;63.43;97299.59;5060850;28;20425;-69
2023/12/09 02:41:48;;;;;;;11.90;9.13;;;;;;;10.27;63.41;97299.28;5070591;28;20463;-69
2023/12/09 02:44:13;;;;;;;15.70;10.63;;;;;;;10.30;63.33;97293.78;5044981;28;20673;-71
2023/12/09 02:46:39;;;;;;;11.07;9.10;;;;;;;10.36;63.55;97294.13;5069709;28;20471;-70
2023/12/09 02:49:04;;;;;;;18.03;9.90;;;;;;;10.37;63.39;97285.31;5068498;28;20569;-70
2023/12/09 02:51:29;;;;;;;17.13;10.53;;;;;;;10.40;62.93;97288.47;5071180;28;20564;-70
2023/12/09 02:53:55;;;;;;;13.10;9.50;;;;;;;10.37;62.91;97282.69;5069569;28;20265;-70
2023/12/09 02:56:20;;;;;;;15.73;9.90;;;;;;;10.32;63.22;97279.69;5070312;28;20244;-69
2023/12/09 02:58:46;;;;;;;16.10;10.60;;;;;;;10.35;63.18;97268.91;5069899;28;20267;-70
2023/12/09 03:01:12;;;;;;;12.90;8.70;;;;;;;10.34;63.24;97269.88;5060860;28;20199;-70
2023/12/09 03:03:37;;;;;;;10.13;8.53;;;;;;;10.32;63.15;97258.75;5068365;28;20201;-70
2023/12/09 03:06:03;;;;;;;12.60;9.40;;;;;;;10.24;63.28;97251.63;5070256;28;20251;-69
2023/12/09 03:08:28;;;;;;;20.20;9.93;;;;;;;10.22;63.41;97243.91;5070171;28;20221;-69
2023/12/09 03:10:54;;;;;;;14.93;9.90;;;;;;;10.23;63.28;97256.03;5070523;28;20175;-70
2023/12/09 03:13:19;;;;;;;11.80;9.67;;;;;;;10.26;63.28;97250.50;5067142;28;20229;-72
2023/12/09 03:15:44;;;;;;;12.93;8.90;;;;;;;10.27;63.46;97251.34;5061325;28;20190;-69
2023/12/09 03:18:10;;;;;;;13.10;7.77;;;;;;;10.28;63.43;97248.56;5017211;28;20187;-68
2023/12/09 03:20:35;;;;;;;12.40;9.50;;;;;;;10.24;63.27;97241.16;5068690;28;20222;-69
2023/12/09 03:23:01;;;;;;;13.80;8.57;;;;;;;10.26;63.38;97247.06;5070607;28;20214;-70
2023/12/09 03:25:26;;;;;;;15.40;9.13;;;;;;;10.27;63.47;97241.66;5062023;28;20692;-69
2023/12/09 03:27:52;;;;;;;12.70;8.57;;;;;;;10.22;63.35;97238.66;5062116;28;20178;-70
2023/12/09 03:30:17;;;;;;;12.50;8.70;;;;;;;10.13;63.46;97239.56;5063688;28;20227;-69
2023/12/09 03:32:42;;;;;;;14.80;8.63;;;;;;;10.20;63.56;97243.25;5062412;28;20283;-70
2023/12/09 03:35:09;;;;;;;11.70;8.63;;;;;;;10.20;63.56;97240.63;5062474;28;20186;-69
2023/12/09 03:37:35;;;;;;;10.43;7.70;;;;;;;10.27;63.39;97243.47;5062044;28;20178;-70
2023/12/09 03:40:01;;;;;;;10.43;7.63;;;;;;;10.25;63.26;97237.56;5069292;28;20423;-69
2023/12/09 03:42:27;;;;;;;8.80;7.33;;;;;;;10.23;63.11;97236.88;5066634;28;20215;-71
2023/12/09 03:44:52;;;;;;;13.37;8.20;;;;;;;10.24;63.30;97235.91;5061858;28;20760;-71
2023/12/09 03:47:18;;;;;;;11.67;8.00;;;;;;;10.14;62.99;97225.50;5054183;28;20252;-70
2023/12/09 03:49:43;;;;;;;15.93;8.60;;;;;;;10.10;63.09;97224.97;5068442;28;20265;-72
2023/12/09 03:52:09;;;;;;;9.87;7.77;;;;;;;10.05;62.88;97232.44;5064632;28;20182;-69
2023/12/09 03:54:37;;;;;;;12.67;8.37;;;;;;;9.99;62.82;97239.09;5069592;28;20179;-69
2023/12/09 03:57:02;;;;;;;11.40;8.00;;;;;;;9.96;62.78;97239.38;5061608;28;20765;-71
2023/12/09 03:59:28;;;;;;;11.63;6.60;;;;;;;10.02;62.86;97247.63;5069604;28;20421;-70
2023/12/09 04:01:53;;;;;;;9.83;5.97;;;;;;;10.07;62.50;97245.41;5063841;28;20324;-70
2023/12/09 04:04:19;;;;;;;17.67;7.50;;;;;;;9.96;62.11;97239.38;5059609;28;20178;-70
2023/12/09 04:06:44;;;;;;;8.90;6.87;;;;;;;9.90;62.19;97234.75;5064773;28;20427;-70
2023/12/09 04:09:10;;;;;;;13.53;7.00;;;;;;;9.86;62.63;97232.56;5067275;28;20256;-70
2023/12/09 04:11:36;;;;;;;11.43;6.50;;;;;;;9.90;62.54;97226.06;5065086;28;20178;-70
2023/12/09 04:14:01;;;;;;;13.30;5.90;;;;;;;9.85;62.72;97226.50;5063621;28;20258;-71
2023/12/09 04:16:26;;;;;;;16.63;7.17;;;;;;;9.89;62.75;97220.00;5057471;28;20285;-71
2023/12/09 04:18:52;;;;;;;11.33;6.40;;;;;;;9.96;62.54;97234.16;5068765;28;20266;-71
2023/12/09 04:21:17;;;;;;;9.90;6.47;;;;;;;9.93;62.50;97234.47;5061279;28;20233;-70
2023/12/09 04:23:43;;;;;;;9.90;5.80;;;;;;;9.93;62.51;97242.31;5058629;28;20190;-69
2023/12/09 04:26:09;;;;;;;9.30;6.00;;;;;;;9.97;62.56;97253.31;5051316;28;20206;-70
2023/12/09 04:28:34;;;;;;;10.10;6.00;;;;;;;9.95;62.98;97250.84;5003413;28;20182;-71
2023/12/09 04:31:00;;;;;;;8.13;6.27;;;;;;;9.99;62.80;97252.19;5060381;28;20769;-70
2023/12/09 04:33:25;;;;;;;6.50;5.23;;;;;;;9.96;62.24;97256.91;5067560;28;20174;-70
2023/12/09 04:35:51;;;;;;;8.83;5.20;;;;;;;9.95;62.46;97263.09;5065663;28;20233;-73
2023/12/09 04:38:16;;;;;;;11.10;5.70;;;;;;;10.02;62.81;97261.53;5067040;28;20178;-69
2023/12/09 04:40:42;;;;;;;10.10;5.40;;;;;;;10.01;62.78;97259.91;5068136;28;20303;-69
2023/12/09 04:43:08;;;;;;;9.30;5.20;;;;;;;10.02;62.84;97260.72;5066607;28;20188;-68
2023/12/09 04:45:33;;;;;;;10.10;5.63;;;;;;;10.08;62.60;97257.53;5063545;28;20190;-69
2023/12/09 04:47:59;;;;;;;12.90;5.77;;;;;;;10.07;62.45;97255.88;5067276;28;20942;-69
2023/12/09 04:50:25;;;;;;;9.33;4.87;;;;;;;10.11;62.42;97250.19;5064703;28;20545;-70
2023/12/09 04:52:50;;;;;;;9.10;5.10;;;;;;;10.13;62.57;97268.38;5029871;28;20695;-70
2023/12/09 04:55:15;;;;;;;13.23;5.10;;;;;;;10.16;62.70;97273.31;5062387;28;20170;-69
2023/12/09 04:57:41;;;;;;;7.80;5.03;;;;;;;10.15;62.65;97261.19;5069193;28;20193;-70
2023/12/09 05:00:10;;;;;;;9.10;5.37;;;;;;;10.16;62.45;97268.09;5056594;28;20200;-70
2023/12/09 05:02:36;;;;;;;12.57;5.80;;;;;;;10.12;62.69;97253.63;5046501;28;20187;-70
2023/12/09 05:05:01;;;;;;;11.33;6.23;;;;;;;10.09;62.39;97253.91;5065700;28;21031;-69
2023/12/09 05:07:28;;;;;;;12.93;5.80;;;;;;;10.01;63.02;97251.22;5067069;28;21248;-69
2023/12/09 05:09:53;;;;;;;9.63;5.30;;;;;;;10.05;62.74;97256.00;5059274;28;20182;-70
2023/12/09 05:12:19;;;;;;;10.60;5.50;;;;;;;10.08;63.16;97250.47;5064352;28;20536;-70
2023/12/09 05:14:44;;;;;;;6.17;4.70;;;;;;;10.15;62.87;97250.72;5061688;28;20172;-69
2023/12/09 05:17:11;;;;;;;8.97;4.70;;;;;;;10.19;63.01;97248.63;5067284;28;20267;-69
2023/12/09 05:19:36;;;;;;;11.73;4.83;;;;;;;10.18;62.67;97247.81;5067874;28;20607;-69
2023/12/09 05:22:02;;;;;;;8.23;4.93;;;;;;;10.18;62.59;97241.72;5067589;28;20552;-68
2023/12/09 05:24:27;;;;;;;8.07;4.47;;;;;;;10.23;62.73;97240.31;5064660;28;20270;-69
2023/12/09 05:26:53;;;;;;;6.10;4.00;;;;;;;10.18;62.79;97237.34;5063377;28;20284;-72
2023/12/09 05:29:18;;;;;;;12.10;4.53;;;;;;;10.22;62.61;97236.03;5061990;28;20210;-69
2023/12/09 05:31:43;;;;;;;6.60;3.87;;;;;;;10.26;62.64;97229.53;5066916;28;20542;-69
2023/12/09 05:34:09;;;;;;;9.67;4.40;;;;;;;10.28;62.42;97226.75;5058823;28;20552;-69
2023/12/09 05:36:36;;;;;;;5.53;3.90;;;;;;;10.24;62.65;97222.81;5067790;28;20226;-68
2023/12/09 05:39:02;;;;;;;7.97;4.10;;;;;;;10.26;62.43;97219.06;5067336;28;20719;-70
2023/12/09 05:41:27;;;;;;;6.90;4.00;;;;;;;10.27;62.42;97218.09;5065438;28;20453;-69
2023/12/09 05:43:53;;;;;;;8.00;4.30;;;;;;;10.32;62.14;97212.41;5067854;28;20416;-69
2023/12/09 05:46:19;;;;;;;6.13;4.00;;;;;;;10.30;62.10;97215.19;5067382;28;20721;-69
2023/12/09 05:48:45;;;;;;;9.40;4.53;;;;;;;10.32;61.99;97216.81;5066919;28;20178;-70
2023/12/09 05:51:10;;;;;;;9.40;5.20;;;;;;;10.27;62.13;97215.47;5066817;28;20228;-69
2023/12/09 05:53:35;;;;;;;9.60;4.90;;;;;;;10.20;62.15;97209.19;5065836;28;20257;-69
2023/12/09 05:56:01;;;;;;;10.10;4.80;;;;;;;10.25;62.05;97212.19;5061242;28;20703;-70
2023/12/09 05:58:26;;;;;;;9.20;4.73;;;;;;;10.28;62.26;97218.91;5067515;28;20186;-71
2023/12/09 06:00:52;;;;;;;8.00;4.63;;;;;;;10.24;62.13;97210.53;5063225;28;20205;-71
2023/12/09 06:03:17;;;;;;;9.40;4.60;;;;;;;10.24;61.78;97207.09;5061764;28;20589;-70
2023/12/09 06:05:43;;;;;;;8.17;4.47;;;;;;;10.16;61.78;97207.84;5047964;28;20248;-71
2023/12/09 06:08:08;;;;;;;7.63;4.63;;;;;;;10.22;62.02;97215.09;5048069;28;20316;-70
2023/12/09 06:10:34;;;;;;;8.53;3.97;;;;;;;10.20;61.58;97205.75;5052267;28;20906;-69
2023/12/09 06:12:59;;;;;;;7.10;4.30;;;;;;;10.21;61.72;97210.81;5067174;28;20279;-69
2023/12/09 06:15:25;;;;;;;6.97;4.10;;;;;;;10.16;61.74;97210.47;5050429;28;20183;-71
2023/12/09 06:17:50;;;;;;;5.77;4.07;;;;;;;10.11;62.11;97205.69;5069226;28;20175;-68
2023/12/09 06:20:16;;;;;;;8.60;3.80;;;;;;;10.12;61.82;97206.50;5016540;28;20265;-71
2023/12/09 06:22:41;;;;;;;12.63;3.83;;;;;;;10.20;61.93;97214.44;5033901;28;20593;-70
2023/12/09 06:25:07;;;;;;;10.20;3.40;;;;;;;10.17;61.89;97214.72;5067652;28;20549;-69
2023/12/09 06:27:33;;;;;;;9.07;4.30;;;;;;;10.19;61.62;97210.16;5063636;28;20303;-68
2023/12/09 06:29:59;;;;;;;4.63;3.73;;;;;;;10.19;61.76;97209.34;5060821;28;20421;-69
2023/12/09 06:32:24;;;;;;;6.03;4.03;;;;;;;10.22;61.66;97207.22;5066879;28;20676;-69
2023/12/09 06:34:50;;;;;;;8.30;4.10;;;;;;;10.24;61.49;97204.47;5064538;28;20231;-69
2023/12/09 06:37:15;;;;;;;5.83;3.80;;;;;;;10.23;61.58;97187.94;5067034;28;20226;-69
2023/12/09 06:39:40;;;;;;;6.03;3.70;;;;;;;10.22;61.24;97181.03;5016734;28;20177;-69
2023/12/09 06:42:06;;;;;;;7.97;3.50;;;;;;;10.19;61.42;97183.97;5045519;28;20194;-69
2023/12/09 06:44:31;;;;;;;7.60;3.67;;;;;;;10.24;61.43;97192.19;5046310;28;20860;-68
2023/12/09 06:46:57;;;;;;;6.10;3.80;;;;;;;10.28;61.38;97180.44;4997791;28;20198;-69
2023/12/09 06:49:22;;;;;;;4.50;3.17;;;;;;;10.30;61.42;97196.00;5061089;28;20240;-69
2023/12/09 06:51:49;;;;;;;8.03;3.40;;;;;;;10.24;60.95;97186.16;5053035;28;20262;-69
2023/12/09 06:54:15;;;;;;;6.30;3.57;;;;;;;10.19;61.02;97194.47;5052370;28;20236;-69
2023/12/09 06:56:40;;;;;;;5.53;2.77;;;;;;;10.23;60.95;97187.13;5060465;28;20440;-69
2023/12/09 06:59:06;;;;;;;7.53;3.30;;;;;;;10.21;61.22;97187.25;5053412;28;20182;-68
2023/12/09 07:01:31;;;;;;;8.10;3.43;;;;;;;10.15;61.21;97185.25;5059472;28;20199;-70
2023/12/09 07:03:57;;;;;;;5.50;2.97;;;;;;;10.18;60.99;97177.09;5057140;28;20175;-71
2023/12/09 07:06:24;;;;;;;6.90;3.20;;;;;;;10.22;60.87;97188.91;5057144;28;20199;-69
2023/12/09 07:08:50;;;;;;;4.80;3.27;;;;;;;10.19;61.08;97191.84;5067753;28;20262;-69
2023/12/09 07:11:16;;;;;;;7.33;2.90;;;;;;;10.21;61.16;97200.34;5056546;28;20452;-69
2023/12/09 07:13:41;;;;;;;9.80;2.60;;;;;;;10.19;60.94;97186.59;5061081;28;20228;-70
2023/12/09 07:16:09;;;;;;;8.33;3.33;;;;;;;10.19;60.57;97178.75;5064739;28;20818;-70
2023/12/09 07:18:35;;;;;;;5.77;3.20;;;;;;;10.15;60.71;97172.16;5064280;28;20712;-69
2023/12/09 07:21:02;;;;;;;6.27;2.80;;;;;;;10.17;60.89;97188.53;5056534;28;20518;-69
2023/12/09 07:23:27;;;;;;;4.47;3.17;;;;;;;10.20;60.75;97187.41;5063508;28;20520;-70
2023/12/09 07:25:53;;;;;;;4.90;3.30;;;;;;;10.23;60.60;97187.94;5057016;28;20535;-69
2023/12/09 07:28:18;;;;;;;4.20;2.90;;;;;;;10.25;60.52;97196.47;5066018;28;20221;-70
2023/12/09 07:30:44;;;;;;;5.57;3.93;;;;;;;10.27;60.31;97198.94;5062874;28;20214;-69
2023/12/09 07:33:09;;;;;;;5.87;3.70;;;;;;;10.24;60.49;97192.19;5055977;28;20183;-69
2023/12/09 07:35:34;;;;;;;6.03;3.20;;;;;;;10.27;60.24;97183.22;5065047;28;20182;-70
2023/12/09 07:38:00;;;;;;;4.87;2.90;;;;;;;10.25;59.50;97185.16;5062111;28;20232;-70
2023/12/09 07:40:25;;;;;;;9.17;3.53;;;;;;;10.21;59.71;97186.44;5065109;28;20277;-68
2023/12/09 07:42:51;;;;;;;4.00;3.17;;;;;;;10.26;59.59;97182.38;5067843;28;20592;-70
2023/12/09 07:45:16;;;;;;;9.43;3.80;;;;;;;10.23;59.74;97184.50;5056951;28;20207;-70
2023/12/09 07:47:42;;;;;;;5.57;3.17;;;;;;;10.20;59.81;97183.00;5065703;28;20260;-70
2023/12/09 07:50:08;;;;;;;5.93;3.00;;;;;;;10.21;59.94;97183.81;5066832;28;20549;-69
2023/12/09 07:52:33;;;;;;;8.27;3.53;;;;;;;10.30;59.46;97180.28;5065519;28;20179;-69
2023/12/09 07:54:58;;;;;;;4.83;2.83;;;;;;;10.30;59.60;97189.00;5062649;28;20182;-69
2023/12/09 07:57:24;;;;;;;9.23;2.97;;;;;;;10.32;59.87;97191.44;5064949;28;20289;-69
2023/12/09 07:59:49;;;;;;;7.80;3.10;;;;;;;10.28;59.64;97188.31;5064913;28;20194;-69
2023/12/09 08:02:15;;;;;;;3.67;2.90;;;;;;;10.25;59.58;97191.22;5067391;28;20306;-68
2023/12/09 08:04:40;;;;;;;6.67;3.03;;;;;;;10.27;59.51;97183.22;5057167;28;20310;-69
2023/12/09 08:07:06;;;;;;;4.97;3.00;;;;;;;10.30;59.35;97183.75;5059328;28;20238;-69
2023/12/09 08:09:31;;;;;;;3.67;2.97;;;;;;;10.30;59.46;97170.66;5055815;28;20194;-68
2023/12/09 08:11:57;;;;;;;7.10;3.27;;;;;;;10.30;59.68;97168.03;5065730;28;20558;-70
2023/12/09 08:14:22;;;;;;;6.47;2.83;;;;;;;10.33;59.72;97155.59;5067352;28;20618;-68
2023/12/09 08:16:47;;;;;;;7.90;2.87;;;;;;;10.34;59.60;97152.81;5068145;28;20576;-68
2023/12/09 08:19:13;;;;;;;5.30;3.00;;;;;;;10.32;59.66;97154.78;5064833;28;20547;-69
2023/12/09 08:21:39;;;;;;;5.40;3.13;;;;;;;10.36;59.55;97160.53;5067072;28;20282;-69
2023/12/09 08:24:04;;;;;;;6.37;2.83;;;;;;;10.34;59.23;97163.31;5068566;28;20190;-70
2023/12/09 08:26:30;;;;;;;10.17;3.13;;;;;;;10.35;59.23;97169.34;5061536;28;20210;-68
2023/12/09 08:28:55;;;;;;;7.40;2.80;;;;;;;10.34;59.75;97167.69;5066185;28;20178;-69
2023/12/09 08:31:21;;;;;;;5.20;2.70;;;;;;;10.35;59.39;97169.34;5069060;28;20265;-69
2023/12/09 08:33:46;;;;;;;6.43;3.37;;;;;;;10.35;59.35;97158.88;5065527;28;20328;-69
2023/12/09 08:36:12;;;;;;;10.30;3.20;;;;;;;10.36;59.48;97160.53;5069008;28;20202;-69
2023/12/09 08:38:37;;;;;;;6.07;3.03;;;;;;;10.32;59.59;97154.78;5070469;28;20217;-70
2023/12/09 08:41:03;;;;;;;9.77;3.60;;;;;;;10.32;59.65;97141.66;5068720;28;20215;-71
2023/12/09 08:43:28;;;;;;;5.30;3.20;;;;;;;10.35;59.72;97148.41;5068540;28;20285;-71
2023/12/09 08:45:53;;;;;;;6.30;3.00;;;;;;;10.38;60.16;97145.50;5059466;28;20594;-71
2023/12/09 08:48:19;;;;;;;13.77;3.73;;;;;;;10.39;60.18;97141.91;5067192;28;20273;-68
2023/12/09 08:50:44;;;;;;;6.93;3.27;;;;;;;10.49;60.61;97149.69;5067591;28;20306;-69
2023/12/09 08:53:10;;;;;;;7.10;3.40;;;;;;;10.54;60.38;97152.66;5066729;28;20190;-69
2023/12/09 08:55:35;;;;;;;7.17;3.20;;;;;;;10.62;60.04;97152.72;5066723;28;20262;-70
2023/12/09 08:58:01;;;;;;;3.83;3.10;;;;;;;10.58;58.95;97159.25;5060545;28;20261;-68
2023/12/09 09:00:27;;;;;;;9.60;3.13;;;;;;;10.62;59.18;97155.34;5067827;28;20561;-70
2023/12/09 09:02:55;;;;;;;7.30;3.37;;;;;;;10.71;59.36;97148.38;5062332;28;20840;-69
2023/12/09 09:05:24;;;;;;;4.87;3.30;;;;;;;10.73;58.95;97142.00;5045726;28;20416;-70
2023/12/09 09:07:49;;;;;;;7.00;3.77;;;;;;;10.75;59.30;97137.41;5058372;28;20853;-69
2023/12/09 09:10:15;;;;;;;4.60;3.43;;;;;;;10.78;59.40;97128.41;5060880;28;20577;-69
2023/12/09 09:12:40;;;;;;;5.80;3.60;;;;;;;10.75;59.16;97132.19;5065715;28;20561;-70
2023/12/09 09:15:07;;;;;;;7.00;3.40;;;;;;;10.77;58.88;97129.38;5063447;28;20214;-70
2023/12/09 09:17:32;;;;;;;5.83;2.60;;;;;;;10.80;58.84;97126.47;5065547;28;20206;-69
2023/12/09 09:19:58;;;;;;;8.63;2.90;;;;;;;10.73;58.73;97120.19;5067496;28;20433;-71
2023/12/09 09:22:23;;;;;;;5.90;3.00;;;;;;;10.80;58.92;97115.97;5068032;28;20301;-70
2023/12/09 09:24:49;;;;;;;6.77;2.73;;;;;;;10.77;58.32;97139.06;5064462;28;20197;-69
2023/12/09 09:27:14;;;;;;;5.47;2.90;;;;;;;10.75;58.30;97139.19;5063239;28;20623;-69
2023/12/09 09:29:39;;;;;;;8.10;3.20;;;;;;;10.63;58.13;97137.81;5065526;28;20193;-70
2023/12/09 09:32:06;;;;;;;6.30;2.43;;;;;;;10.70;58.35;97138.84;5064615;28;20179;-70
2023/12/09 09:34:31;;;;;;;4.30;2.60;;;;;;;10.56;58.44;97140.22;5066371;28;20204;-69
2023/12/09 09:36:56;;;;;;;3.53;2.40;;;;;;;10.62;58.49;97129.16;5063109;28;20639;-70
2023/12/09 09:39:22;;;;;;;7.70;2.40;;;;;;;10.54;58.82;97119.44;5067269;28;20209;-70
2023/12/09 09:41:59;;;;;;;6.27;2.60;;;;;;;10.49;58.57;97107.75;5065308;28;20230;-70
2023/12/09 09:44:27;;;;;;;4.13;2.30;;;;;;;10.52;58.57;97095.16;5067889;28;20557;-69
2023/12/09 09:46:57;;;;;;;3.93;2.30;;;;;;;10.58;58.53;97089.31;5067294;28;20436;-70
2023/12/09 09:49:24;;;;;;;3.70;2.43;;;;;;;10.53;58.66;97082.88;5066887;28;20428;-70
2023/12/09 09:51:53;;;;;;;6.60;2.70;;;;;;;10.59;58.37;97082.28;5065017;28;20417;-69
2023/12/09 09:54:25;;;;;;;6.33;2.40;;;;;;;10.61;58.22;97080.31;5060642;28;20421;-69
2023/12/09 09:56:50;;;;;;;6.37;2.80;;;;;;;10.58;58.28;97091.94;5049294;28;20440;-70
2023/12/09 09:59:17;;;;;;;3.73;2.80;;;;;;;10.53;58.12;97078.47;5049618;28;20432;-69
2023/12/09 10:01:44;;;;;;;4.77;2.30;;;;;;;10.27;58.82;97083.69;5058357;28;20216;-69
2023/12/09 10:04:10;;;;;;;3.10;2.47;;;;;;;10.44;58.76;97068.94;5067264;28;20456;-69
2023/12/09 10:06:35;;;;;;;5.30;2.70;;;;;;;10.45;58.87;97063.53;5061060;28;20469;-70
2023/12/09 10:09:01;;;;;;;8.33;3.03;;;;;;;10.47;59.11;97076.47;5066560;28;20232;-71
2023/12/09 10:11:26;;;;;;;5.13;2.73;;;;;;;10.54;58.72;97066.19;5060589;28;20183;-68
2023/12/09 10:13:52;;;;;;;4.73;3.00;;;;;;;10.60;58.87;97071.63;5062499;28;20719;-70
2023/12/09 10:16:17;;;;;;;7.27;2.60;;;;;;;10.53;58.89;97062.75;5064291;28;20206;-70
2023/12/09 10:18:46;;;;;;;5.33;2.47;;;;;;;10.45;58.99;97060.91;5059810;28;20273;-69
2023/12/09 10:21:12;;;;;;;5.20;2.70;;;;;;;10.54;58.98;97048.69;5056977;28;20242;-70
2023/12/09 10:23:37;;;;;;;4.50;2.77;;;;;;;10.67;58.70;97034.31;5058329;28;20460;-69
2023/12/09 10:26:04;;;;;;;3.57;2.40;;;;;;;10.65;58.77;97028.41;5064328;28;20228;-70
2023/12/09 10:28:30;;;;;;;5.60;2.57;;;;;;;10.67;58.58;97006.31;5062594;28;20185;-70
2023/12/09 10:30:56;;;;;;;6.30;2.73;;;;;;;10.59;58.54;97004.47;5048933;28;20441;-70
2023/12/09 10:33:22;;;;;;;7.23;2.30;;;;;;;10.65;58.69;97008.25;5063181;28;21051;-71
2023/12/09 10:35:48;;;;;;;5.67;2.67;;;;;;;10.71;58.78;97014.69;5056493;28;20206;-70
2023/12/09 10:38:15;;;;;;;5.20;3.60;;;;;;;10.82;58.32;97005.69;5059239;28;20190;-69
2023/12/09 10:40:40;;;;;;;7.00;2.77;;;;;;;10.92;58.39;96995.91;5050614;28;20406;-70
2023/12/09 10:43:06;;;;;;;6.73;3.17;;;;;;;10.96;58.28;96978.06;5067428;28;20517;-70
2023/12/09 10:45:31;;;;;;;5.07;2.63;;;;;;;11.06;58.28;96986.59;5067712;28;20214;-70
2023/12/09 10:47:57;;;;;;;6.97;3.67;;;;;;;11.13;58.10;96984.16;5066014;28;20198;-70
2023/12/09 10:50:23;;;;;;;5.10;3.00;;;;;;;11.20;57.84;96979.91;5068510;28;20281;-70
2023/12/09 10:52:48;;;;;;;3.30;2.50;;;;;;;11.18;57.68;96966.97;5064251;28;20186;-71
2023/12/09 10:55:14;;;;;;;6.20;2.90;;;;;;;11.14;58.18;96960.38;5066808;28;20190;-70
2023/12/09 10:57:41;;;;;;;8.17;2.73;;;;;;;11.21;57.97;96969.25;5059626;28;20570;-70
2023/12/09 11:00:10;;;;;;;3.70;2.57;;;;;;;11.33;57.94;96961.06;5068260;28;20458;-70
2023/12/09 11:02:38;;;;;;;5.50;3.30;;;;;;;11.46;57.91;96958.78;5069077;28;20452;-70
2023/12/09 11:05:05;;;;;;;3.80;2.23;;;;;;;11.59;58.25;96946.97;5045486;28;20433;-69
2023/12/09 11:07:33;;;;;;;6.03;3.00;;;;;;;11.73;57.77;96930.53;5048001;28;20470;-70
2023/12/09 11:09:59;;;;;;;3.63;2.37;;;;;;;11.91;57.69;96935.59;5065657;28;20432;-69
2023/12/09 11:12:28;;;;;;;5.50;2.63;;;;;;;12.02;57.42;96923.16;5067376;28;20433;-71
2023/12/09 11:14:53;;;;;;;2.87;2.30;;;;;;;12.17;56.72;96916.19;5064572;28;20247;-70
2023/12/09 11:17:40;;;;;;;4.40;2.53;;;;;;;12.24;55.91;96892.69;5063058;28;20449;-71
2023/12/09 11:20:09;;;;;;;6.90;2.90;;;;;;;12.26;55.48;96888.06;5055664;28;20254;-71
2023/12/09 11:22:40;;;;;;;5.73;2.90;;;;;;;12.25;55.16;96883.81;5061500;28;20457;-70